createdAt,value
2022-08-21T00:01:23.263Z,24.97
2022-08-21T00:03:53.272Z,25.00
2022-08-21T00:06:23.474Z,25.05
2022-08-21T00:08:54.621Z,25.13
2022-08-21T00:11:25.550Z,25.19
2022-08-21T00:13:56.613Z,25.22
2022-08-21T00:16:27.075Z,25.27
2022-08-21T00:18:57.626Z,25.26
2022-08-21T00:21:27.881Z,25.27
2022-08-21T00:23:58.025Z,25.26
2022-08-21T00:26:28.733Z,25.25
2022-08-21T00:28:59.306Z,25.25
2022-08-21T00:31:31.463Z,25.22
2022-08-21T00:34:02.007Z,25.21
2022-08-21T00:36:32.208Z,25.22
2022-08-21T00:39:02.257Z,25.21
2022-08-21T00:41:37.512Z,25.20
2022-08-21T00:44:14.235Z,25.22
2022-08-21T00:46:45.859Z,25.23
2022-08-21T00:49:16.770Z,25.23
2022-08-21T00:51:58.104Z,25.24
2022-08-21T00:54:32.642Z,25.23
2022-08-21T00:57:07.419Z,25.26
2022-08-21T00:59:41.269Z,25.29
2022-08-21T01:02:12.610Z,25.37
2022-08-21T01:04:43.521Z,25.46
2022-08-21T01:07:14.908Z,25.59
2022-08-21T01:09:46.048Z,25.70
2022-08-21T01:12:17.096Z,25.80
2022-08-21T01:14:48.092Z,25.87
2022-08-21T01:17:20.035Z,25.93
2022-08-21T01:19:50.661Z,26.00
2022-08-21T01:22:21.707Z,26.07
2022-08-21T01:24:52.428Z,26.10
2022-08-21T01:27:23.332Z,26.13
2022-08-21T01:30:24.964Z,26.15
2022-08-21T01:32:56.936Z,26.16
2022-08-21T01:35:27.019Z,26.18
2022-08-21T01:37:57.028Z,26.20
2022-08-21T01:40:27.079Z,26.21
2022-08-21T01:42:57.510Z,26.22
2022-08-21T01:45:27.624Z,26.21
2022-08-21T01:47:57.680Z,26.22
2022-08-21T01:50:27.712Z,26.24
2022-08-21T01:52:57.833Z,26.27
2022-08-21T01:55:28.166Z,26.33
2022-08-21T01:57:58.129Z,26.40
2022-08-21T02:00:28.483Z,26.43
2022-08-21T02:02:58.792Z,26.43
2022-08-21T02:05:29.076Z,26.47
2022-08-21T02:08:00.795Z,26.52
2022-08-21T02:10:34.669Z,26.59
2022-08-21T02:13:05.995Z,26.62
2022-08-21T02:15:36.837Z,26.66
2022-08-21T02:18:09.152Z,26.70
2022-08-21T02:20:44.219Z,26.74
2022-08-21T02:23:15.261Z,26.76
2022-08-21T02:25:45.925Z,26.81
2022-08-21T02:28:18.357Z,26.93
2022-08-21T02:30:50.138Z,27.02
2022-08-21T02:33:21.776Z,27.12
2022-08-21T02:35:54.264Z,27.16
2022-08-21T02:38:28.395Z,27.19
2022-08-21T02:41:00.001Z,27.17
2022-08-21T02:43:31.184Z,27.20
2022-08-21T02:46:02.194Z,27.23
2022-08-21T02:48:34.081Z,27.26
2022-08-21T02:51:08.799Z,27.32
2022-08-21T02:53:40.373Z,27.35
2022-08-21T02:56:14.440Z,27.41
2022-08-21T02:58:51.134Z,27.46
2022-08-21T03:01:22.543Z,27.49
2022-08-21T03:03:53.074Z,27.53
2022-08-21T03:06:26.874Z,27.60
2022-08-21T03:08:57.094Z,27.71
2022-08-21T03:11:28.950Z,27.80
2022-08-21T03:13:59.618Z,27.88
2022-08-21T03:16:43.910Z,27.93
2022-08-21T03:19:14.761Z,27.97
2022-08-21T03:21:44.774Z,27.97
2022-08-21T03:24:14.759Z,27.95
2022-08-21T03:26:48.175Z,27.95
2022-08-21T03:29:18.422Z,27.95
2022-08-21T03:31:48.465Z,27.98
2022-08-21T03:34:20.340Z,27.98
2022-08-21T03:36:51.788Z,27.99
2022-08-21T03:39:22.176Z,27.99
2022-08-21T03:41:52.664Z,27.97
2022-08-21T03:44:22.681Z,27.94
2022-08-21T03:46:52.592Z,27.91
2022-08-21T03:49:22.890Z,27.88
2022-08-21T03:52:04.595Z,27.89
2022-08-21T03:54:36.038Z,27.86
2022-08-21T03:57:07.357Z,27.85
2022-08-21T03:59:38.610Z,27.83
2022-08-21T04:02:10.018Z,27.83
2022-08-21T04:04:40.703Z,27.80
2022-08-21T04:07:10.832Z,27.78
2022-08-21T04:09:41.021Z,27.77
2022-08-21T04:12:11.567Z,27.75
2022-08-21T04:14:41.659Z,27.76
2022-08-21T04:17:11.637Z,27.75
2022-08-21T04:19:41.600Z,27.76
2022-08-21T04:22:11.566Z,27.77
2022-08-21T04:24:41.582Z,27.79
2022-08-21T04:27:11.533Z,27.83
2022-08-21T04:29:41.482Z,27.87
2022-08-21T04:32:11.819Z,27.92
2022-08-21T04:34:41.771Z,28.00
2022-08-21T04:37:11.702Z,28.06
2022-08-21T04:39:41.649Z,28.11
2022-08-21T04:42:11.791Z,28.16
2022-08-21T04:44:41.807Z,28.20
2022-08-21T04:47:11.756Z,28.23
2022-08-21T04:49:41.774Z,28.29
2022-08-21T04:52:12.119Z,28.33
2022-08-21T04:54:42.786Z,28.37
2022-08-21T04:57:13.450Z,28.41
2022-08-21T04:59:51.490Z,28.45
2022-08-21T05:02:25.011Z,28.49
2022-08-21T05:04:57.547Z,28.53
2022-08-21T05:07:41.892Z,28.57
2022-08-21T05:10:16.194Z,28.62
2022-08-21T05:12:47.611Z,28.65
2022-08-21T05:15:19.557Z,28.69
2022-08-21T05:17:52.327Z,28.71
2022-08-21T05:20:24.335Z,28.73
2022-08-21T05:22:58.503Z,28.74
2022-08-21T05:25:30.844Z,28.79
2022-08-21T05:28:01.182Z,28.81
2022-08-21T05:30:32.325Z,28.81
2022-08-21T05:33:08.421Z,28.84
2022-08-21T05:35:40.777Z,28.83
2022-08-21T05:38:16.512Z,28.85
2022-08-21T05:40:57.798Z,28.86
2022-08-21T05:43:28.787Z,28.89
2022-08-21T05:45:58.867Z,28.91
2022-08-21T05:48:28.781Z,28.93
2022-08-21T05:50:59.559Z,28.94
2022-08-21T05:53:32.166Z,28.94
2022-08-21T05:56:05.735Z,28.93
2022-08-21T05:58:37.395Z,28.92
2022-08-21T06:01:08.949Z,28.90
2022-08-21T06:03:43.370Z,28.91
2022-08-21T06:06:13.595Z,28.89
2022-08-21T06:08:44.740Z,28.91
2022-08-21T06:11:15.804Z,28.89
2022-08-21T06:13:49.772Z,28.87
2022-08-21T06:16:20.674Z,28.84
2022-08-21T06:18:51.749Z,28.82
2022-08-21T06:21:22.733Z,28.81
2022-08-21T06:23:53.196Z,28.81
2022-08-21T06:26:24.629Z,28.83
2022-08-21T06:28:56.037Z,28.87
2022-08-21T06:31:29.840Z,28.91
2022-08-21T06:34:00.248Z,28.95
2022-08-21T06:36:30.386Z,28.97
2022-08-21T06:39:00.328Z,29.01
2022-08-21T06:41:32.089Z,29.04
2022-08-21T06:44:20.652Z,29.08
2022-08-21T06:47:00.779Z,29.12
2022-08-21T06:49:39.962Z,29.10
2022-08-21T06:52:15.180Z,29.13
2022-08-21T06:54:54.498Z,29.11
2022-08-21T06:57:25.076Z,29.12
2022-08-21T06:59:55.266Z,29.15
2022-08-21T07:02:25.237Z,29.17
2022-08-21T07:04:55.279Z,29.22
2022-08-21T07:07:24.685Z,29.26
2022-08-21T07:09:54.613Z,29.26
2022-08-21T07:12:24.574Z,29.26
2022-08-21T07:14:54.500Z,29.26
2022-08-21T07:17:24.638Z,29.24
2022-08-21T07:19:54.729Z,29.23
2022-08-21T07:22:25.806Z,29.25
2022-08-21T07:24:56.714Z,29.28
2022-08-21T07:27:27.369Z,29.29
2022-08-21T07:29:57.116Z,29.32
2022-08-21T07:32:27.704Z,29.36
2022-08-21T07:34:57.837Z,29.40
2022-08-21T07:37:28.021Z,29.45
2022-08-21T07:39:58.904Z,29.51
2022-08-21T07:42:29.256Z,29.51
2022-08-21T07:45:01.961Z,29.53
2022-08-21T07:47:42.800Z,29.52
2022-08-21T07:50:16.036Z,29.53
2022-08-21T07:52:47.346Z,29.52
2022-08-21T07:55:22.196Z,29.54
2022-08-21T07:57:52.877Z,29.53
2022-08-21T08:00:26.865Z,29.51
2022-08-21T08:02:58.502Z,29.46
2022-08-21T08:05:32.431Z,29.41
2022-08-21T08:08:02.859Z,29.36
2022-08-21T08:10:33.673Z,29.30
2022-08-21T08:13:04.682Z,29.23
2022-08-21T08:15:37.600Z,29.16
2022-08-21T08:18:08.719Z,29.12
2022-08-21T08:20:39.052Z,29.07
2022-08-21T08:23:09.845Z,29.03
2022-08-21T08:25:40.229Z,28.98
2022-08-21T08:28:16.975Z,28.91
2022-08-21T08:30:49.069Z,28.85
2022-08-21T08:33:22.839Z,28.79
2022-08-21T08:35:54.465Z,28.76
2022-08-21T08:38:27.185Z,28.72
2022-08-21T08:41:13.132Z,28.69
2022-08-21T08:43:47.977Z,28.64
2022-08-21T08:46:21.894Z,28.61
2022-08-21T08:49:02.209Z,28.59
2022-08-21T08:51:39.785Z,28.55
2022-08-21T08:54:16.767Z,28.54
2022-08-21T08:56:48.297Z,28.51
2022-08-21T08:59:23.476Z,28.48
2022-08-21T09:01:54.240Z,28.46
2022-08-21T09:04:31.173Z,28.44
2022-08-21T09:07:28.530Z,28.40
2022-08-21T09:10:17.667Z,28.36
2022-08-21T09:13:22.610Z,28.31
2022-08-21T09:16:25.608Z,28.25
2022-08-21T09:19:08.014Z,28.23
2022-08-21T09:21:43.985Z,28.20
2022-08-21T09:24:50.040Z,28.16
2022-08-21T09:27:24.456Z,28.12
2022-08-21T09:29:59.890Z,28.11
2022-08-21T09:32:37.847Z,28.08
2022-08-21T09:35:21.995Z,28.07
2022-08-21T09:37:58.107Z,28.04
2022-08-21T09:40:48.094Z,28.01
2022-08-21T09:43:22.203Z,27.99
2022-08-21T09:46:22.221Z,27.95
2022-08-21T09:49:57.934Z,27.93
2022-08-21T09:52:33.914Z,27.90
2022-08-21T09:55:26.537Z,27.86
2022-08-21T09:57:57.167Z,27.84
2022-08-21T10:00:33.198Z,27.84
2022-08-21T10:03:16.029Z,27.81
2022-08-21T10:05:58.491Z,27.79
2022-08-21T10:08:31.863Z,27.77
2022-08-21T10:11:26.979Z,27.76
2022-08-21T10:14:05.056Z,27.74
2022-08-21T10:16:37.899Z,27.71
2022-08-21T10:19:11.070Z,27.69
2022-08-21T10:22:12.076Z,27.65
2022-08-21T10:25:14.164Z,27.64
2022-08-21T10:28:15.880Z,27.61
2022-08-21T10:31:19.506Z,27.56
2022-08-21T10:34:12.453Z,27.54
2022-08-21T10:36:46.823Z,27.51
2022-08-21T10:39:35.873Z,27.47
2022-08-21T10:42:11.356Z,27.43
2022-08-21T10:44:53.789Z,27.41
2022-08-21T10:47:35.906Z,27.38
2022-08-21T10:50:15.025Z,27.35
2022-08-21T10:53:03.193Z,27.31
2022-08-21T10:55:46.722Z,27.27
2022-08-21T10:58:34.198Z,27.23
2022-08-21T11:01:23.504Z,27.20
2022-08-21T11:04:18.853Z,27.15
2022-08-21T11:07:01.821Z,27.12
2022-08-21T11:09:34.909Z,27.07
2022-08-21T11:12:16.132Z,27.05
2022-08-21T11:14:58.281Z,27.01
2022-08-21T11:17:39.748Z,26.98
2022-08-21T11:20:24.541Z,26.95
2022-08-21T11:23:25.647Z,26.92
2022-08-21T11:26:04.831Z,26.89
2022-08-21T11:28:44.020Z,26.87
2022-08-21T11:32:05.455Z,26.82
2022-08-21T11:35:05.621Z,26.78
2022-08-21T11:38:05.780Z,26.73
2022-08-21T11:40:41.914Z,26.71
2022-08-21T11:43:33.521Z,26.69
2022-08-21T11:46:20.802Z,26.64
2022-08-21T11:49:03.254Z,26.60
2022-08-21T11:51:50.492Z,26.56
2022-08-21T11:54:31.801Z,26.50
2022-08-21T11:57:12.839Z,26.45
2022-08-21T11:59:50.279Z,26.40
2022-08-21T12:02:26.069Z,26.36
2022-08-21T12:05:08.169Z,26.31
2022-08-21T12:07:42.934Z,26.28
2022-08-21T12:10:25.256Z,26.24
2022-08-21T12:12:55.565Z,26.20
2022-08-21T12:15:25.463Z,26.16
2022-08-21T12:18:05.638Z,26.13
2022-08-21T12:21:15.269Z,26.09
2022-08-21T12:24:24.274Z,26.07
2022-08-21T12:27:30.777Z,26.04
2022-08-21T12:30:09.302Z,25.98
2022-08-21T12:32:45.390Z,25.96
2022-08-21T12:35:40.920Z,25.95
2022-08-21T12:38:35.523Z,25.92
2022-08-21T12:41:21.062Z,25.91
2022-08-21T12:44:07.401Z,25.89
2022-08-21T12:46:47.639Z,25.88
2022-08-21T12:49:29.414Z,25.85
2022-08-21T12:52:04.989Z,25.85
2022-08-21T12:54:43.453Z,25.84
2022-08-21T12:57:24.313Z,25.84
2022-08-21T13:00:01.415Z,25.82
2022-08-21T13:02:39.735Z,25.79
2022-08-21T13:05:15.452Z,25.78
2022-08-21T13:07:51.571Z,25.76
2022-08-21T13:10:32.742Z,25.72
2022-08-21T13:13:25.822Z,25.66
2022-08-21T13:16:06.057Z,25.62
2022-08-21T13:18:54.405Z,25.55
2022-08-21T13:21:35.196Z,25.51
2022-08-21T13:24:43.375Z,25.48
2022-08-21T13:27:30.981Z,25.45
2022-08-21T13:30:12.622Z,25.42
2022-08-21T13:32:49.196Z,25.40
2022-08-21T13:35:25.616Z,25.35
2022-08-21T13:37:58.745Z,25.32
2022-08-21T13:40:42.559Z,25.31
2022-08-21T13:43:26.596Z,25.27
2022-08-21T13:45:58.814Z,25.25
2022-08-21T13:48:37.151Z,25.20
2022-08-21T13:51:08.921Z,25.13
2022-08-21T13:53:39.042Z,25.10
2022-08-21T13:56:10.064Z,25.04
2022-08-21T13:58:51.140Z,25.00
2022-08-21T14:01:38.928Z,24.97
2022-08-21T14:04:51.064Z,24.92
2022-08-21T14:07:47.041Z,24.86
2022-08-21T14:10:25.961Z,24.87
2022-08-21T14:13:04.752Z,24.86
2022-08-21T14:15:38.531Z,24.85
2022-08-21T14:18:28.825Z,24.82
2022-08-21T14:21:12.095Z,24.80
2022-08-21T14:23:47.268Z,24.73
2022-08-21T14:26:23.032Z,24.70
2022-08-21T14:28:54.547Z,24.64
2022-08-21T14:31:35.778Z,24.58
2022-08-21T14:34:19.584Z,24.53
2022-08-21T14:36:52.070Z,24.49
2022-08-21T14:39:23.495Z,24.48
2022-08-21T14:41:59.884Z,24.44
2022-08-21T14:44:30.196Z,24.43
2022-08-21T14:47:04.491Z,24.40
2022-08-21T14:49:39.118Z,24.39
2022-08-21T14:52:09.677Z,24.35
2022-08-21T14:54:41.123Z,24.37
2022-08-21T14:57:14.717Z,24.36
2022-08-21T14:59:45.965Z,24.33
2022-08-21T15:02:16.387Z,24.31
2022-08-21T15:04:47.230Z,24.30
2022-08-21T15:07:17.838Z,24.27
2022-08-21T15:09:51.260Z,24.25
2022-08-21T15:12:22.492Z,24.25
2022-08-21T15:14:53.512Z,24.21
2022-08-21T15:17:25.187Z,24.21
2022-08-21T15:19:55.946Z,24.19
2022-08-21T15:22:29.695Z,24.19
2022-08-21T15:25:00.409Z,24.19
2022-08-21T15:27:33.875Z,24.16
2022-08-21T15:30:08.210Z,24.14
2022-08-21T15:32:40.359Z,24.14
2022-08-21T15:35:12.008Z,24.12
2022-08-21T15:37:44.297Z,24.12
2022-08-21T15:40:16.653Z,24.09
2022-08-21T15:42:48.996Z,24.07
2022-08-21T15:45:19.745Z,24.05
2022-08-21T15:47:53.323Z,24.04
2022-08-21T15:50:24.535Z,24.03
2022-08-21T15:52:56.450Z,24.03
2022-08-21T15:55:28.316Z,24.02
2022-08-21T15:58:05.708Z,24.02
2022-08-21T16:00:40.716Z,24.01
2022-08-21T16:03:16.503Z,24.00
2022-08-21T16:05:51.824Z,23.97
2022-08-21T16:08:23.952Z,23.98
2022-08-21T16:10:57.837Z,23.98
2022-08-21T16:13:33.397Z,23.99
2022-08-21T16:16:04.231Z,23.99
2022-08-21T16:18:35.543Z,24.01
2022-08-21T16:21:06.585Z,24.01
2022-08-21T16:23:39.913Z,24.02
2022-08-21T16:26:14.165Z,24.01
2022-08-21T16:28:50.995Z,23.99
2022-08-21T16:31:23.568Z,23.98
2022-08-21T16:33:58.099Z,23.96
2022-08-21T16:36:29.453Z,23.95
2022-08-21T16:39:02.864Z,23.92
2022-08-21T16:41:38.125Z,23.94
2022-08-21T16:44:09.788Z,23.92
2022-08-21T16:46:44.410Z,23.90
2022-08-21T16:49:15.394Z,23.89
2022-08-21T16:51:49.211Z,23.88
2022-08-21T16:54:20.422Z,23.85
2022-08-21T16:56:54.189Z,23.83
2022-08-21T16:59:26.048Z,23.83
2022-08-21T17:01:57.431Z,23.78
2022-08-21T17:04:30.952Z,23.78
2022-08-21T17:07:01.526Z,23.77
2022-08-21T17:09:31.898Z,23.77
2022-08-21T17:12:02.310Z,23.76
2022-08-21T17:14:32.684Z,23.74
2022-08-21T17:17:07.257Z,23.73
2022-08-21T17:19:38.553Z,23.72
2022-08-21T17:22:10.394Z,23.73
2022-08-21T17:24:41.197Z,23.71
2022-08-21T17:27:11.879Z,23.68
2022-08-21T17:29:43.382Z,23.67
2022-08-21T17:32:16.438Z,23.66
2022-08-21T17:34:48.824Z,23.66
2022-08-21T17:37:19.257Z,23.66
2022-08-21T17:39:50.185Z,23.65
2022-08-21T17:42:20.806Z,23.67
2022-08-21T17:44:51.082Z,23.66
2022-08-21T17:47:21.774Z,23.66
2022-08-21T17:49:52.024Z,23.67
2022-08-21T17:52:22.520Z,23.66
2022-08-21T17:54:52.652Z,23.66
2022-08-21T17:57:29.300Z,23.67
2022-08-21T17:59:59.970Z,23.67
2022-08-21T18:02:33.196Z,23.65
2022-08-21T18:05:03.632Z,23.65
2022-08-21T18:07:33.728Z,23.66
2022-08-21T18:10:07.547Z,23.66
2022-08-21T18:12:38.028Z,23.68
2022-08-21T18:15:09.232Z,23.68
2022-08-21T18:17:39.462Z,23.67
2022-08-21T18:20:10.548Z,23.69
2022-08-21T18:22:40.790Z,23.70
2022-08-21T18:25:11.095Z,23.67
2022-08-21T18:27:43.973Z,23.69
2022-08-21T18:30:17.714Z,23.70
2022-08-21T18:32:48.562Z,23.70
2022-08-21T18:35:19.453Z,23.69
2022-08-21T18:37:49.738Z,23.71
2022-08-21T18:40:19.920Z,23.69
2022-08-21T18:42:55.879Z,23.68
2022-08-21T18:45:26.971Z,23.68
2022-08-21T18:47:59.359Z,23.67
2022-08-21T18:50:31.433Z,23.67
2022-08-21T18:53:01.569Z,23.67
2022-08-21T18:55:39.972Z,23.68
2022-08-21T18:58:11.497Z,23.70
2022-08-21T19:00:48.452Z,23.69
2022-08-21T19:03:24.647Z,23.71
2022-08-21T19:05:56.243Z,23.71
2022-08-21T19:08:30.373Z,23.72
2022-08-21T19:11:03.869Z,23.71
2022-08-21T19:13:37.829Z,23.71
2022-08-21T19:16:09.740Z,23.71
2022-08-21T19:18:43.306Z,23.70
2022-08-21T19:21:14.065Z,23.69
2022-08-21T19:23:44.791Z,23.68
2022-08-21T19:26:14.853Z,23.69
2022-08-21T19:28:47.259Z,23.69
2022-08-21T19:31:23.752Z,23.68
2022-08-21T19:34:07.760Z,23.65
2022-08-21T19:36:38.778Z,23.65
2022-08-21T19:39:14.301Z,23.66
2022-08-21T19:41:51.099Z,23.65
2022-08-21T19:44:26.030Z,23.66
2022-08-21T19:46:59.149Z,23.69
2022-08-21T19:49:33.458Z,23.71
2022-08-21T19:52:12.957Z,23.68
2022-08-21T19:54:44.486Z,23.69
2022-08-21T19:57:15.372Z,23.69
2022-08-21T19:59:46.975Z,23.70
2022-08-21T20:02:21.271Z,23.69
2022-08-21T20:04:53.790Z,23.74
2022-08-21T20:10:15.781Z,23.76
2022-08-21T20:12:49.592Z,23.78
2022-08-21T20:15:23.284Z,23.79
2022-08-21T20:17:54.735Z,23.81
2022-08-21T20:20:24.953Z,23.81
2022-08-21T20:23:01.313Z,23.83
2022-08-21T20:25:42.063Z,23.83
2022-08-21T20:28:12.270Z,23.83
2022-08-21T20:30:46.826Z,23.81
2022-08-21T20:33:18.973Z,23.82
2022-08-21T20:35:51.265Z,23.82
2022-08-21T20:38:22.399Z,23.83
2022-08-21T20:40:54.786Z,23.84
2022-08-21T20:43:25.546Z,23.84
2022-08-21T20:45:58.529Z,23.85
2022-08-21T20:48:49.513Z,23.85
2022-08-21T20:51:32.017Z,23.84
2022-08-21T20:54:28.550Z,23.85
2022-08-21T20:57:22.928Z,23.85
2022-08-21T20:59:58.500Z,23.85
2022-08-21T21:02:31.451Z,23.85
2022-08-21T21:05:24.968Z,23.83
2022-08-21T21:08:07.247Z,23.79
2022-08-21T21:11:19.621Z,23.79
2022-08-21T21:14:02.015Z,23.77
2022-08-21T21:16:45.883Z,23.75
2022-08-21T21:19:37.339Z,23.76
2022-08-21T21:22:15.903Z,23.76
2022-08-21T21:25:03.091Z,23.74
2022-08-21T21:27:55.516Z,23.75
2022-08-21T21:30:25.996Z,23.76
2022-08-21T21:32:56.292Z,23.75
2022-08-21T21:35:36.483Z,23.77
2022-08-21T21:38:14.601Z,23.77
2022-08-21T21:40:47.786Z,23.74
2022-08-21T21:43:49.559Z,23.75
2022-08-21T21:46:31.404Z,23.73
2022-08-21T21:49:29.012Z,23.72
2022-08-21T21:52:21.661Z,23.71
2022-08-21T21:55:13.406Z,23.73
2022-08-21T21:58:36.857Z,23.74
2022-08-21T22:01:17.865Z,23.75
2022-08-21T22:03:52.267Z,23.76
2022-08-21T22:06:39.111Z,23.76
2022-08-21T22:09:20.263Z,23.77
2022-08-21T22:11:59.864Z,23.77
2022-08-21T22:14:41.730Z,23.77
2022-08-21T22:17:35.090Z,23.77
2022-08-21T22:20:17.938Z,23.77
2022-08-21T22:22:49.351Z,23.76
2022-08-21T22:25:26.260Z,23.78
2022-08-21T22:28:13.200Z,23.79
2022-08-21T22:30:53.764Z,23.77
2022-08-21T22:33:33.854Z,23.80
2022-08-21T22:36:20.986Z,23.80
2022-08-21T22:38:50.977Z,23.81
2022-08-21T22:44:24.894Z,23.87
2022-08-21T22:47:01.799Z,23.90
2022-08-21T22:49:50.986Z,23.93
2022-08-21T22:52:25.739Z,23.96
2022-08-21T22:55:01.779Z,23.97
2022-08-21T22:57:37.127Z,23.98
2022-08-21T23:00:14.818Z,24.00
2022-08-21T23:02:58.418Z,24.04
2022-08-21T23:05:31.364Z,24.08
2022-08-21T23:08:24.340Z,24.09
2022-08-21T23:11:01.415Z,24.13
2022-08-21T23:13:40.384Z,24.17
2022-08-21T23:16:34.380Z,24.21
2022-08-21T23:19:28.674Z,24.26
2022-08-21T23:22:15.778Z,24.30
2022-08-21T23:25:19.274Z,24.39
2022-08-21T23:28:03.854Z,24.45
2022-08-21T23:30:56.747Z,24.47
2022-08-21T23:33:26.623Z,24.52
2022-08-21T23:36:53.312Z,24.57
2022-08-21T23:39:32.443Z,24.61
2022-08-21T23:42:36.164Z,24.66
2022-08-21T23:45:19.465Z,24.67
2022-08-21T23:48:29.677Z,24.70
2022-08-21T23:51:25.046Z,24.73
2022-08-21T23:53:58.123Z,24.76
2022-08-21T23:56:34.452Z,24.80
2022-08-21T23:59:28.200Z,24.84
